sensor_id;sensor_type;location;lat;lon;timestamp;temperature;humidity
29539;DHT22;16482;51.046;4.498;2023-04-03T00:02:15;23.50;28.90
29539;DHT22;16482;51.046;4.498;2023-04-03T00:04:41;23.50;28.90
29539;DHT22;16482;51.046;4.498;2023-04-03T00:07:07;23.40;28.80
29539;DHT22;16482;51.046;4.498;2023-04-03T00:09:33;23.40;28.80
29539;DHT22;16482;51.046;4.498;2023-04-03T00:11:59;23.50;29.00
29539;DHT22;16482;51.046;4.498;2023-04-03T00:14:25;23.50;28.90
29539;DHT22;16482;51.046;4.498;2023-04-03T00:16:53;23.40;28.80
29539;DHT22;16482;51.046;4.498;2023-04-03T00:19:19;23.40;28.80
29539;DHT22;16482;51.046;4.498;2023-04-03T00:21:45;23.40;28.70
29539;DHT22;16482;51.046;4.498;2023-04-03T00:24:14;23.40;28.70
29539;DHT22;16482;51.046;4.498;2023-04-03T00:26:40;23.40;28.70
29539;DHT22;16482;51.046;4.498;2023-04-03T00:29:14;23.40;28.70
29539;DHT22;16482;51.046;4.498;2023-04-03T00:31:42;23.40;28.70
29539;DHT22;16482;51.046;4.498;2023-04-03T00:34:14;23.40;28.70
29539;DHT22;16482;51.046;4.498;2023-04-03T00:36:40;23.40;28.70
29539;DHT22;16482;51.046;4.498;2023-04-03T00:39:15;23.40;28.70
29539;DHT22;16482;51.046;4.498;2023-04-03T00:41:43;23.30;28.60
29539;DHT22;16482;51.046;4.498;2023-04-03T00:47:07;23.30;28.60
29539;DHT22;16482;51.046;4.498;2023-04-03T00:49:34;23.30;28.60
29539;DHT22;16482;51.046;4.498;2023-04-03T00:52:01;23.30;28.50
29539;DHT22;16482;51.046;4.498;2023-04-03T00:54:27;23.30;28.50
29539;DHT22;16482;51.046;4.498;2023-04-03T00:56:55;23.30;28.50
29539;DHT22;16482;51.046;4.498;2023-04-03T00:59:25;23.30;28.50
29539;DHT22;16482;51.046;4.498;2023-04-03T01:01:55;23.30;28.50
29539;DHT22;16482;51.046;4.498;2023-04-03T01:04:36;23.30;28.50
29539;DHT22;16482;51.046;4.498;2023-04-03T01:07:08;23.30;28.50
29539;DHT22;16482;51.046;4.498;2023-04-03T01:09:35;23.30;28.40
29539;DHT22;16482;51.046;4.498;2023-04-03T01:12:37;23.30;28.40
29539;DHT22;16482;51.046;4.498;2023-04-03T01:15:19;23.30;28.40
29539;DHT22;16482;51.046;4.498;2023-04-03T01:17:46;23.30;28.40
29539;DHT22;16482;51.046;4.498;2023-04-03T01:20:50;23.30;28.40
29539;DHT22;16482;51.046;4.498;2023-04-03T01:23:43;23.30;28.40
29539;DHT22;16482;51.046;4.498;2023-04-03T01:26:12;23.20;28.30
29539;DHT22;16482;51.046;4.498;2023-04-03T01:28:38;23.20;28.40
29539;DHT22;16482;51.046;4.498;2023-04-03T01:31:28;23.20;28.40
29539;DHT22;16482;51.046;4.498;2023-04-03T01:33:56;23.30;28.40
29539;DHT22;16482;51.046;4.498;2023-04-03T01:36:25;23.20;28.50
29539;DHT22;16482;51.046;4.498;2023-04-03T01:38:53;23.20;28.40
29539;DHT22;16482;51.046;4.498;2023-04-03T01:41:20;23.20;28.40
29539;DHT22;16482;51.046;4.498;2023-04-03T01:43:48;23.20;28.80
29539;DHT22;16482;51.046;4.498;2023-04-03T01:46:15;23.20;28.40
29539;DHT22;16482;51.046;4.498;2023-04-03T01:48:41;23.20;28.30
29539;DHT22;16482;51.046;4.498;2023-04-03T01:51:08;23.20;28.30
29539;DHT22;16482;51.046;4.498;2023-04-03T01:53:33;23.20;28.30
29539;DHT22;16482;51.046;4.498;2023-04-03T01:55:59;23.20;28.40
29539;DHT22;16482;51.046;4.498;2023-04-03T01:58:28;23.20;28.30
29539;DHT22;16482;51.046;4.498;2023-04-03T02:00:54;23.20;28.30
29539;DHT22;16482;51.046;4.498;2023-04-03T02:03:23;23.20;28.40
29539;DHT22;16482;51.046;4.498;2023-04-03T02:05:54;23.20;28.30
29539;DHT22;16482;51.046;4.498;2023-04-03T02:08:23;23.20;28.30
29539;DHT22;16482;51.046;4.498;2023-04-03T02:10:59;23.20;28.30
29539;DHT22;16482;51.046;4.498;2023-04-03T02:13:27;23.20;28.30
29539;DHT22;16482;51.046;4.498;2023-04-03T02:15:55;23.10;28.30
29539;DHT22;16482;51.046;4.498;2023-04-03T02:18:24;23.20;28.30
29539;DHT22;16482;51.046;4.498;2023-04-03T02:20:53;23.10;28.20
29539;DHT22;16482;51.046;4.498;2023-04-03T02:23:26;23.20;28.20
29539;DHT22;16482;51.046;4.498;2023-04-03T02:25:52;23.20;28.20
29539;DHT22;16482;51.046;4.498;2023-04-03T02:28:26;23.20;28.20
29539;DHT22;16482;51.046;4.498;2023-04-03T02:30:55;23.10;28.20
29539;DHT22;16482;51.046;4.498;2023-04-03T02:33:30;23.10;28.20
29539;DHT22;16482;51.046;4.498;2023-04-03T02:35:57;23.10;28.10
29539;DHT22;16482;51.046;4.498;2023-04-03T02:38:23;23.10;28.10
29539;DHT22;16482;51.046;4.498;2023-04-03T02:40:53;23.10;28.10
29539;DHT22;16482;51.046;4.498;2023-04-03T02:43:24;23.10;28.20
29539;DHT22;16482;51.046;4.498;2023-04-03T02:45:59;23.10;28.10
29539;DHT22;16482;51.046;4.498;2023-04-03T02:48:25;23.10;28.10
29539;DHT22;16482;51.046;4.498;2023-04-03T02:50:55;23.10;28.10
29539;DHT22;16482;51.046;4.498;2023-04-03T02:53:23;23.10;28.60
29539;DHT22;16482;51.046;4.498;2023-04-03T02:55:54;23.10;28.10
29539;DHT22;16482;51.046;4.498;2023-04-03T02:58:23;23.10;28.10
29539;DHT22;16482;51.046;4.498;2023-04-03T03:00:59;23.10;28.20
29539;DHT22;16482;51.046;4.498;2023-04-03T03:03:25;23.10;28.10
29539;DHT22;16482;51.046;4.498;2023-04-03T03:06:13;23.10;28.10
29539;DHT22;16482;51.046;4.498;2023-04-03T03:08:39;23.10;28.10
29539;DHT22;16482;51.046;4.498;2023-04-03T03:11:06;23.00;28.00
29539;DHT22;16482;51.046;4.498;2023-04-03T03:13:33;23.00;28.10
29539;DHT22;16482;51.046;4.498;2023-04-03T03:15:59;23.10;28.10
29539;DHT22;16482;51.046;4.498;2023-04-03T03:18:25;23.10;28.00
29539;DHT22;16482;51.046;4.498;2023-04-03T03:21:02;23.00;28.00
29539;DHT22;16482;51.046;4.498;2023-04-03T03:23:30;23.00;28.00
29539;DHT22;16482;51.046;4.498;2023-04-03T03:25:59;23.00;28.00
29539;DHT22;16482;51.046;4.498;2023-04-03T03:28:25;23.00;27.90
29539;DHT22;16482;51.046;4.498;2023-04-03T03:30:54;23.00;28.00
29539;DHT22;16482;51.046;4.498;2023-04-03T03:33:23;23.00;28.00
29539;DHT22;16482;51.046;4.498;2023-04-03T03:36:06;23.00;28.00
29539;DHT22;16482;51.046;4.498;2023-04-03T03:38:32;23.00;27.90
29539;DHT22;16482;51.046;4.498;2023-04-03T03:40:58;23.00;28.00
29539;DHT22;16482;51.046;4.498;2023-04-03T03:43:24;23.00;28.00
29539;DHT22;16482;51.046;4.498;2023-04-03T03:45:59;23.00;27.90
29539;DHT22;16482;51.046;4.498;2023-04-03T03:48:25;23.00;28.00
29539;DHT22;16482;51.046;4.498;2023-04-03T03:50:54;22.90;27.90
29539;DHT22;16482;51.046;4.498;2023-04-03T03:53:23;23.00;28.00
29539;DHT22;16482;51.046;4.498;2023-04-03T03:55:54;23.00;28.00
29539;DHT22;16482;51.046;4.498;2023-04-03T03:58:23;23.00;27.90
29539;DHT22;16482;51.046;4.498;2023-04-03T04:01:10;23.00;28.00
29539;DHT22;16482;51.046;4.498;2023-04-03T04:03:36;22.90;27.90
29539;DHT22;16482;51.046;4.498;2023-04-03T04:06:02;22.90;28.00
29539;DHT22;16482;51.046;4.498;2023-04-03T04:08:28;22.90;27.90
29539;DHT22;16482;51.046;4.498;2023-04-03T04:10:54;22.90;28.00
29539;DHT22;16482;51.046;4.498;2023-04-03T04:13:23;22.90;27.90
29539;DHT22;16482;51.046;4.498;2023-04-03T04:15:58;22.90;27.90
29539;DHT22;16482;51.046;4.498;2023-04-03T04:18:27;23.00;27.90
29539;DHT22;16482;51.046;4.498;2023-04-03T04:20:56;22.90;27.90
29539;DHT22;16482;51.046;4.498;2023-04-03T04:23:24;22.90;27.90
29539;DHT22;16482;51.046;4.498;2023-04-03T04:25:53;22.90;28.00
29539;DHT22;16482;51.046;4.498;2023-04-03T04:28:27;22.90;28.00
29539;DHT22;16482;51.046;4.498;2023-04-03T04:30:55;22.90;27.90
29539;DHT22;16482;51.046;4.498;2023-04-03T04:33:28;22.90;28.00
29539;DHT22;16482;51.046;4.498;2023-04-03T04:35:57;22.90;27.90
29539;DHT22;16482;51.046;4.498;2023-04-03T04:38:23;22.90;27.90
29539;DHT22;16482;51.046;4.498;2023-04-03T04:40:56;22.90;27.90
29539;DHT22;16482;51.046;4.498;2023-04-03T04:43:22;22.90;27.90
29539;DHT22;16482;51.046;4.498;2023-04-03T04:46:00;22.90;27.90
29539;DHT22;16482;51.046;4.498;2023-04-03T04:48:26;22.90;27.80
29539;DHT22;16482;51.046;4.498;2023-04-03T04:50:55;22.80;27.80
29539;DHT22;16482;51.046;4.498;2023-04-03T04:53:24;22.80;27.80
29539;DHT22;16482;51.046;4.498;2023-04-03T04:55:58;22.80;27.70
29539;DHT22;16482;51.046;4.498;2023-04-03T04:58:25;22.90;27.60
29539;DHT22;16482;51.046;4.498;2023-04-03T05:01:08;22.90;28.00
29539;DHT22;16482;51.046;4.498;2023-04-03T05:03:34;22.90;28.30
29539;DHT22;16482;51.046;4.498;2023-04-03T05:06:01;22.80;28.20
29539;DHT22;16482;51.046;4.498;2023-04-03T05:08:27;22.90;28.50
29539;DHT22;16482;51.046;4.498;2023-04-03T05:10:53;22.90;28.70
29539;DHT22;16482;51.046;4.498;2023-04-03T05:13:21;22.90;28.80
29539;DHT22;16482;51.046;4.498;2023-04-03T05:15:55;23.00;29.30
29539;DHT22;16482;51.046;4.498;2023-04-03T05:18:23;23.00;28.80
29539;DHT22;16482;51.046;4.498;2023-04-03T05:20:58;23.00;28.90
29539;DHT22;16482;51.046;4.498;2023-04-03T05:23:25;23.10;29.40
29539;DHT22;16482;51.046;4.498;2023-04-03T05:25:58;23.10;28.90
29539;DHT22;16482;51.046;4.498;2023-04-03T05:28:24;23.10;28.90
29539;DHT22;16482;51.046;4.498;2023-04-03T05:30:57;23.20;28.90
29539;DHT22;16482;51.046;4.498;2023-04-03T05:33:27;23.20;28.80
29539;DHT22;16482;51.046;4.498;2023-04-03T05:35:56;23.20;28.70
29539;DHT22;16482;51.046;4.498;2023-04-03T05:38:24;23.30;28.70
29539;DHT22;16482;51.046;4.498;2023-04-03T05:40:53;23.30;28.70
29539;DHT22;16482;51.046;4.498;2023-04-03T05:43:28;23.40;28.70
29539;DHT22;16482;51.046;4.498;2023-04-03T05:45:54;23.50;28.70
29539;DHT22;16482;51.046;4.498;2023-04-03T05:48:28;23.50;28.60
29539;DHT22;16482;51.046;4.498;2023-04-03T05:50:57;23.50;28.50
29539;DHT22;16482;51.046;4.498;2023-04-03T05:53:31;23.50;28.50
29539;DHT22;16482;51.046;4.498;2023-04-03T05:55:58;23.60;28.50
29539;DHT22;16482;51.046;4.498;2023-04-03T05:58:24;23.60;28.50
29539;DHT22;16482;51.046;4.498;2023-04-03T06:00:53;23.70;28.60
29539;DHT22;16482;51.046;4.498;2023-04-03T06:03:30;23.70;28.60
29539;DHT22;16482;51.046;4.498;2023-04-03T06:05:56;23.70;28.50
29539;DHT22;16482;51.046;4.498;2023-04-03T06:08:24;23.70;28.50
29539;DHT22;16482;51.046;4.498;2023-04-03T06:10:53;23.80;28.50
29539;DHT22;16482;51.046;4.498;2023-04-03T06:13:21;23.80;28.60
29539;DHT22;16482;51.046;4.498;2023-04-03T06:15:55;23.70;28.50
29539;DHT22;16482;51.046;4.498;2023-04-03T06:18:24;23.80;28.50
29539;DHT22;16482;51.046;4.498;2023-04-03T06:20:59;23.80;28.60
29539;DHT22;16482;51.046;4.498;2023-04-03T06:23:26;23.80;28.50
29539;DHT22;16482;51.046;4.498;2023-04-03T06:25:55;23.80;28.60
29539;DHT22;16482;51.046;4.498;2023-04-03T06:28:30;23.80;28.60
29539;DHT22;16482;51.046;4.498;2023-04-03T06:30:56;23.90;28.50
29539;DHT22;16482;51.046;4.498;2023-04-03T06:33:24;23.80;28.50
29539;DHT22;16482;51.046;4.498;2023-04-03T06:36:04;23.90;28.50
29539;DHT22;16482;51.046;4.498;2023-04-03T06:38:32;23.90;28.50
29539;DHT22;16482;51.046;4.498;2023-04-03T06:40:58;23.80;28.50
29539;DHT22;16482;51.046;4.498;2023-04-03T06:43:24;23.90;28.50
29539;DHT22;16482;51.046;4.498;2023-04-03T06:45:59;23.90;28.50
29539;DHT22;16482;51.046;4.498;2023-04-03T06:48:25;24.00;28.50
29539;DHT22;16482;51.046;4.498;2023-04-03T06:51:00;24.00;28.40
29539;DHT22;16482;51.046;4.498;2023-04-03T06:53:26;24.10;28.40
29539;DHT22;16482;51.046;4.498;2023-04-03T06:55:57;24.10;28.30
29539;DHT22;16482;51.046;4.498;2023-04-03T06:58:31;24.20;28.30
29539;DHT22;16482;51.046;4.498;2023-04-03T07:00:56;24.30;28.30
29539;DHT22;16482;51.046;4.498;2023-04-03T07:03:25;24.30;28.20
29539;DHT22;16482;51.046;4.498;2023-04-03T07:05:56;24.30;28.10
29539;DHT22;16482;51.046;4.498;2023-04-03T07:08:30;24.40;28.20
29539;DHT22;16482;51.046;4.498;2023-04-03T07:10:56;24.40;28.10
29539;DHT22;16482;51.046;4.498;2023-04-03T07:13:22;24.40;28.20
29539;DHT22;16482;51.046;4.498;2023-04-03T07:15:56;24.40;27.30
29539;DHT22;16482;51.046;4.498;2023-04-03T07:18:25;24.40;27.80
29539;DHT22;16482;51.046;4.498;2023-04-03T07:20:59;24.40;27.90
29539;DHT22;16482;51.046;4.498;2023-04-03T07:23:25;24.40;27.80
29539;DHT22;16482;51.046;4.498;2023-04-03T07:25:54;24.30;27.90
29539;DHT22;16482;51.046;4.498;2023-04-03T07:28:25;24.40;28.00
29539;DHT22;16482;51.046;4.498;2023-04-03T07:31:02;24.30;28.10
29539;DHT22;16482;51.046;4.498;2023-04-03T07:33:28;24.40;28.10
29539;DHT22;16482;51.046;4.498;2023-04-03T07:35:55;24.30;28.20
29539;DHT22;16482;51.046;4.498;2023-04-03T07:38:26;24.40;28.30
29539;DHT22;16482;51.046;4.498;2023-04-03T07:40:55;24.30;28.30
29539;DHT22;16482;51.046;4.498;2023-04-03T07:43:28;24.30;28.30
29539;DHT22;16482;51.046;4.498;2023-04-03T07:45:54;24.30;28.30
29539;DHT22;16482;51.046;4.498;2023-04-03T07:48:29;24.30;28.30
29539;DHT22;16482;51.046;4.498;2023-04-03T07:50:59;24.40;28.30
29539;DHT22;16482;51.046;4.498;2023-04-03T07:53:26;24.40;28.90
29539;DHT22;16482;51.046;4.498;2023-04-03T07:55:57;24.40;28.50
29539;DHT22;16482;51.046;4.498;2023-04-03T07:58:26;24.40;28.40
29539;DHT22;16482;51.046;4.498;2023-04-03T08:00:55;24.40;28.40
29539;DHT22;16482;51.046;4.498;2023-04-03T08:03:30;24.40;28.20
29539;DHT22;16482;51.046;4.498;2023-04-03T08:06:02;24.40;28.20
29539;DHT22;16482;51.046;4.498;2023-04-03T08:08:29;24.40;28.10
29539;DHT22;16482;51.046;4.498;2023-04-03T08:10:58;24.30;27.20
29539;DHT22;16482;51.046;4.498;2023-04-03T08:13:25;24.30;27.30
29539;DHT22;16482;51.046;4.498;2023-04-03T08:15:54;24.30;27.70
29539;DHT22;16482;51.046;4.498;2023-04-03T08:18:25;24.30;27.70
29539;DHT22;16482;51.046;4.498;2023-04-03T08:20:55;24.30;27.60
29539;DHT22;16482;51.046;4.498;2023-04-03T08:23:28;24.30;27.80
29539;DHT22;16482;51.046;4.498;2023-04-03T08:25:54;24.40;28.00
29539;DHT22;16482;51.046;4.498;2023-04-03T08:28:29;24.40;28.00
29539;DHT22;16482;51.046;4.498;2023-04-03T08:30:55;24.40;28.10
29539;DHT22;16482;51.046;4.498;2023-04-03T08:33:32;24.40;28.20
29539;DHT22;16482;51.046;4.498;2023-04-03T08:35:58;24.40;28.30
29539;DHT22;16482;51.046;4.498;2023-04-03T08:38:26;24.40;28.40
29539;DHT22;16482;51.046;4.498;2023-04-03T08:41:16;24.40;28.40
29539;DHT22;16482;51.046;4.498;2023-04-03T08:44:00;24.40;28.40
29539;DHT22;16482;51.046;4.498;2023-04-03T08:49:42;24.50;28.50
29539;DHT22;16482;51.046;4.498;2023-04-03T08:52:18;24.50;28.70
29539;DHT22;16482;51.046;4.498;2023-04-03T08:54:57;24.50;28.70
29539;DHT22;16482;51.046;4.498;2023-04-03T08:57:40;24.50;28.70
29539;DHT22;16482;51.046;4.498;2023-04-03T09:02:51;24.50;28.60
29539;DHT22;16482;51.046;4.498;2023-04-03T09:05:19;24.50;28.70
29539;DHT22;16482;51.046;4.498;2023-04-03T09:07:49;24.40;28.70
29539;DHT22;16482;51.046;4.498;2023-04-03T09:10:24;24.50;28.80
29539;DHT22;16482;51.046;4.498;2023-04-03T09:13:05;24.50;28.80
29539;DHT22;16482;51.046;4.498;2023-04-03T09:15:34;24.40;28.60
29539;DHT22;16482;51.046;4.498;2023-04-03T09:18:10;24.40;28.80
29539;DHT22;16482;51.046;4.498;2023-04-03T09:23:46;24.40;28.80
29539;DHT22;16482;51.046;4.498;2023-04-03T09:26:18;24.50;29.00
29539;DHT22;16482;51.046;4.498;2023-04-03T09:28:46;24.40;29.10
29539;DHT22;16482;51.046;4.498;2023-04-03T09:31:20;24.40;29.10
29539;DHT22;16482;51.046;4.498;2023-04-03T09:33:49;24.40;29.10
29539;DHT22;16482;51.046;4.498;2023-04-03T09:36:45;24.30;29.00
29539;DHT22;16482;51.046;4.498;2023-04-03T09:39:23;24.40;29.10
29539;DHT22;16482;51.046;4.498;2023-04-03T09:42:15;24.30;28.90
29539;DHT22;16482;51.046;4.498;2023-04-03T09:44:42;24.40;28.90
29539;DHT22;16482;51.046;4.498;2023-04-03T09:47:53;24.30;29.10
29539;DHT22;16482;51.046;4.498;2023-04-03T09:50:21;24.30;29.00
29539;DHT22;16482;51.046;4.498;2023-04-03T09:52:51;24.30;29.50
29539;DHT22;16482;51.046;4.498;2023-04-03T09:55:21;24.30;29.00
29539;DHT22;16482;51.046;4.498;2023-04-03T09:58:01;24.30;28.70
29539;DHT22;16482;51.046;4.498;2023-04-03T10:00:38;24.30;28.60
29539;DHT22;16482;51.046;4.498;2023-04-03T10:03:31;24.30;28.50
29539;DHT22;16482;51.046;4.498;2023-04-03T10:05:58;24.30;28.50
29539;DHT22;16482;51.046;4.498;2023-04-03T10:08:26;24.30;28.60
29539;DHT22;16482;51.046;4.498;2023-04-03T10:11:13;24.30;28.60
29539;DHT22;16482;51.046;4.498;2023-04-03T10:14:10;24.30;28.50
29539;DHT22;16482;51.046;4.498;2023-04-03T10:16:48;24.20;28.60
29539;DHT22;16482;51.046;4.498;2023-04-03T10:19:47;24.20;28.50
29539;DHT22;16482;51.046;4.498;2023-04-03T10:22:41;24.20;28.50
29539;DHT22;16482;51.046;4.498;2023-04-03T10:28:05;24.20;28.40
29539;DHT22;16482;51.046;4.498;2023-04-03T10:38:59;24.10;28.20
29539;DHT22;16482;51.046;4.498;2023-04-03T10:47:06;24.10;28.00
29539;DHT22;16482;51.046;4.498;2023-04-03T10:52:20;24.00;27.80
29539;DHT22;16482;51.046;4.498;2023-04-03T10:54:49;24.10;27.80
29539;DHT22;16482;51.046;4.498;2023-04-03T10:57:21;24.10;27.90
29539;DHT22;16482;51.046;4.498;2023-04-03T11:00:06;24.00;27.80
29539;DHT22;16482;51.046;4.498;2023-04-03T11:02:45;24.10;27.70
29539;DHT22;16482;51.046;4.498;2023-04-03T11:08:05;24.00;27.60
29539;DHT22;16482;51.046;4.498;2023-04-03T11:10:44;24.00;27.60
29539;DHT22;16482;51.046;4.498;2023-04-03T11:13:11;24.00;27.50
29539;DHT22;16482;51.046;4.498;2023-04-03T11:15:38;24.00;27.30
29539;DHT22;16482;51.046;4.498;2023-04-03T11:18:31;24.00;27.10
29539;DHT22;16482;51.046;4.498;2023-04-03T11:21:24;24.00;26.80
29539;DHT22;16482;51.046;4.498;2023-04-03T11:23:56;24.00;26.80
29539;DHT22;16482;51.046;4.498;2023-04-03T11:26:27;24.00;26.70
29539;DHT22;16482;51.046;4.498;2023-04-03T11:29:08;24.00;26.70
29539;DHT22;16482;51.046;4.498;2023-04-03T11:32:09;24.00;26.60
29539;DHT22;16482;51.046;4.498;2023-04-03T11:34:40;24.00;26.60
29539;DHT22;16482;51.046;4.498;2023-04-03T11:40:21;24.00;26.20
29539;DHT22;16482;51.046;4.498;2023-04-03T11:42:54;24.10;26.20
29539;DHT22;16482;51.046;4.498;2023-04-03T11:45:26;24.10;25.90
29539;DHT22;16482;51.046;4.498;2023-04-03T11:48:01;24.30;25.90
29539;DHT22;16482;51.046;4.498;2023-04-03T11:59:22;24.40;25.80
29539;DHT22;16482;51.046;4.498;2023-04-03T12:04:24;24.50;25.70
29539;DHT22;16482;51.046;4.498;2023-04-03T12:07:08;24.50;25.60
29539;DHT22;16482;51.046;4.498;2023-04-03T12:17:46;24.60;25.60
29539;DHT22;16482;51.046;4.498;2023-04-03T12:23:28;24.60;25.40
29539;DHT22;16482;51.046;4.498;2023-04-03T12:28:45;24.60;25.40
29539;DHT22;16482;51.046;4.498;2023-04-03T12:31:12;24.60;25.60
29539;DHT22;16482;51.046;4.498;2023-04-03T12:37:03;24.60;25.30
29539;DHT22;16482;51.046;4.498;2023-04-03T12:45:23;24.60;25.20
29539;DHT22;16482;51.046;4.498;2023-04-03T12:47:52;24.60;25.10
29539;DHT22;16482;51.046;4.498;2023-04-03T12:50:28;24.50;25.10
29539;DHT22;16482;51.046;4.498;2023-04-03T12:53:04;24.60;25.00
29539;DHT22;16482;51.046;4.498;2023-04-03T12:55:32;24.60;24.90
29539;DHT22;16482;51.046;4.498;2023-04-03T12:58:17;24.60;25.00
29539;DHT22;16482;51.046;4.498;2023-04-03T13:01:11;24.50;24.90
29539;DHT22;16482;51.046;4.498;2023-04-03T13:03:43;24.50;25.10
29539;DHT22;16482;51.046;4.498;2023-04-03T13:06:17;24.50;24.80
29539;DHT22;16482;51.046;4.498;2023-04-03T13:08:52;24.50;25.00
29539;DHT22;16482;51.046;4.498;2023-04-03T13:11:20;24.40;24.80
29539;DHT22;16482;51.046;4.498;2023-04-03T13:14:04;24.40;24.90
29539;DHT22;16482;51.046;4.498;2023-04-03T13:16:32;24.40;24.90
29539;DHT22;16482;51.046;4.498;2023-04-03T13:18:58;24.40;24.90
29539;DHT22;16482;51.046;4.498;2023-04-03T13:21:32;24.40;25.00
29539;DHT22;16482;51.046;4.498;2023-04-03T13:24:01;24.30;24.70
29539;DHT22;16482;51.046;4.498;2023-04-03T13:26:31;24.30;24.70
29539;DHT22;16482;51.046;4.498;2023-04-03T13:29:20;24.30;25.00
29539;DHT22;16482;51.046;4.498;2023-04-03T13:31:47;24.30;24.90
29539;DHT22;16482;51.046;4.498;2023-04-03T13:34:19;24.30;24.70
29539;DHT22;16482;51.046;4.498;2023-04-03T13:37:11;24.20;24.50
29539;DHT22;16482;51.046;4.498;2023-04-03T13:39:44;24.20;24.60
29539;DHT22;16482;51.046;4.498;2023-04-03T13:42:23;24.20;24.40
29539;DHT22;16482;51.046;4.498;2023-04-03T13:44:49;24.20;24.40
29539;DHT22;16482;51.046;4.498;2023-04-03T13:47:41;24.10;24.30
29539;DHT22;16482;51.046;4.498;2023-04-03T13:50:19;24.20;24.40
29539;DHT22;16482;51.046;4.498;2023-04-03T13:55:35;24.10;24.60
29539;DHT22;16482;51.046;4.498;2023-04-03T13:58:28;24.10;24.60
29539;DHT22;16482;51.046;4.498;2023-04-03T14:01:21;24.10;24.70
29539;DHT22;16482;51.046;4.498;2023-04-03T14:03:56;24.10;24.70
29539;DHT22;16482;51.046;4.498;2023-04-03T14:06:23;24.10;24.70
29539;DHT22;16482;51.046;4.498;2023-04-03T14:08:50;24.10;24.60
29539;DHT22;16482;51.046;4.498;2023-04-03T14:11:24;24.10;24.60
29539;DHT22;16482;51.046;4.498;2023-04-03T14:13:57;24.10;25.10
29539;DHT22;16482;51.046;4.498;2023-04-03T14:16:27;24.10;24.70
29539;DHT22;16482;51.046;4.498;2023-04-03T14:18:55;24.10;24.60
29539;DHT22;16482;51.046;4.498;2023-04-03T14:21:22;24.10;24.60
29539;DHT22;16482;51.046;4.498;2023-04-03T14:23:48;24.10;24.60
29539;DHT22;16482;51.046;4.498;2023-04-03T14:26:20;24.10;24.80
29539;DHT22;16482;51.046;4.498;2023-04-03T14:28:48;24.10;24.50
29539;DHT22;16482;51.046;4.498;2023-04-03T14:31:18;24.10;24.60
29539;DHT22;16482;51.046;4.498;2023-04-03T14:33:45;24.10;24.50
29539;DHT22;16482;51.046;4.498;2023-04-03T14:36:25;24.10;24.80
29539;DHT22;16482;51.046;4.498;2023-04-03T14:38:53;24.10;24.40
29539;DHT22;16482;51.046;4.498;2023-04-03T14:41:23;24.20;24.50
29539;DHT22;16482;51.046;4.498;2023-04-03T14:43:52;24.20;24.40
29539;DHT22;16482;51.046;4.498;2023-04-03T14:46:27;24.10;24.40
29539;DHT22;16482;51.046;4.498;2023-04-03T14:48:54;24.10;24.40
29539;DHT22;16482;51.046;4.498;2023-04-03T14:51:23;24.10;24.40
29539;DHT22;16482;51.046;4.498;2023-04-03T14:53:49;24.10;24.40
29539;DHT22;16482;51.046;4.498;2023-04-03T14:56:22;24.10;24.30
29539;DHT22;16482;51.046;4.498;2023-04-03T14:58:54;24.20;24.20
29539;DHT22;16482;51.046;4.498;2023-04-03T15:01:21;24.10;24.20
29539;DHT22;16482;51.046;4.498;2023-04-03T15:03:47;24.10;24.20
29539;DHT22;16482;51.046;4.498;2023-04-03T15:06:15;24.10;24.10
29539;DHT22;16482;51.046;4.498;2023-04-03T15:08:42;24.10;24.10
29539;DHT22;16482;51.046;4.498;2023-04-03T15:11:11;24.10;24.10
29539;DHT22;16482;51.046;4.498;2023-04-03T15:13:38;24.20;24.30
29539;DHT22;16482;51.046;4.498;2023-04-03T15:16:15;24.10;24.20
29539;DHT22;16482;51.046;4.498;2023-04-03T15:18:42;24.20;24.20
29539;DHT22;16482;51.046;4.498;2023-04-03T15:21:08;24.10;24.20
29539;DHT22;16482;51.046;4.498;2023-04-03T15:23:34;24.10;24.20
29539;DHT22;16482;51.046;4.498;2023-04-03T15:26:01;24.20;24.10
29539;DHT22;16482;51.046;4.498;2023-04-03T15:28:34;24.20;24.20
29539;DHT22;16482;51.046;4.498;2023-04-03T15:31:01;24.20;24.30
29539;DHT22;16482;51.046;4.498;2023-04-03T15:33:27;24.20;24.10
29539;DHT22;16482;51.046;4.498;2023-04-03T15:36:03;24.10;24.00
29539;DHT22;16482;51.046;4.498;2023-04-03T15:38:29;24.10;24.00
29539;DHT22;16482;51.046;4.498;2023-04-03T15:40:56;24.10;23.90
29539;DHT22;16482;51.046;4.498;2023-04-03T15:43:39;24.00;23.80
29539;DHT22;16482;51.046;4.498;2023-04-03T15:46:05;24.00;23.80
29539;DHT22;16482;51.046;4.498;2023-04-03T15:48:31;24.00;23.80
29539;DHT22;16482;51.046;4.498;2023-04-03T15:50:57;24.00;24.00
29539;DHT22;16482;51.046;4.498;2023-04-03T15:53:26;23.90;24.10
29539;DHT22;16482;51.046;4.498;2023-04-03T15:56:10;23.90;24.10
29539;DHT22;16482;51.046;4.498;2023-04-03T15:58:37;24.00;24.50
29539;DHT22;16482;51.046;4.498;2023-04-03T16:01:03;23.90;24.60
29539;DHT22;16482;51.046;4.498;2023-04-03T16:03:29;23.90;24.90
29539;DHT22;16482;51.046;4.498;2023-04-03T16:06:04;23.90;24.50
29539;DHT22;16482;51.046;4.498;2023-04-03T16:08:30;23.90;24.60
29539;DHT22;16482;51.046;4.498;2023-04-03T16:10:59;23.90;24.60
29539;DHT22;16482;51.046;4.498;2023-04-03T16:13:27;23.90;24.50
29539;DHT22;16482;51.046;4.498;2023-04-03T16:16:03;23.90;24.70
29539;DHT22;16482;51.046;4.498;2023-04-03T16:18:29;23.90;24.50
29539;DHT22;16482;51.046;4.498;2023-04-03T16:20:55;23.80;24.60
29539;DHT22;16482;51.046;4.498;2023-04-03T16:23:27;23.80;24.50
29539;DHT22;16482;51.046;4.498;2023-04-03T16:26:02;23.80;24.50
29539;DHT22;16482;51.046;4.498;2023-04-03T16:28:28;23.80;24.50
29539;DHT22;16482;51.046;4.498;2023-04-03T16:31:02;23.80;24.60
29539;DHT22;16482;51.046;4.498;2023-04-03T16:33:29;23.80;24.50
29539;DHT22;16482;51.046;4.498;2023-04-03T16:35:58;23.80;24.90
29539;DHT22;16482;51.046;4.498;2023-04-03T16:38:32;23.80;24.90
29539;DHT22;16482;51.046;4.498;2023-04-03T16:40:58;23.80;25.30
29539;DHT22;16482;51.046;4.498;2023-04-03T16:43:30;23.80;25.70
29539;DHT22;16482;51.046;4.498;2023-04-03T16:45:59;23.80;25.50
29539;DHT22;16482;51.046;4.498;2023-04-03T16:48:30;23.80;25.70
29539;DHT22;16482;51.046;4.498;2023-04-03T16:50:59;23.80;26.10
29539;DHT22;16482;51.046;4.498;2023-04-03T16:53:28;23.80;25.80
29539;DHT22;16482;51.046;4.498;2023-04-03T16:55:57;23.70;25.70
29539;DHT22;16482;51.046;4.498;2023-04-03T16:58:32;23.70;25.40
29539;DHT22;16482;51.046;4.498;2023-04-03T17:00:58;23.70;25.50
29539;DHT22;16482;51.046;4.498;2023-04-03T17:03:29;23.70;25.50
29539;DHT22;16482;51.046;4.498;2023-04-03T17:05:56;23.70;25.50
29539;DHT22;16482;51.046;4.498;2023-04-03T17:08:30;23.70;25.60
29539;DHT22;16482;51.046;4.498;2023-04-03T17:10:58;23.70;25.40
29539;DHT22;16482;51.046;4.498;2023-04-03T17:13:29;23.70;25.40